createdAt,value
2022-10-20T00:01:12.258Z,6.10
2022-10-20T00:03:39.693Z,6.30
2022-10-20T00:06:13.615Z,4.80
2022-10-20T00:08:42.074Z,5.60
2022-10-20T00:11:11.164Z,6.07
2022-10-20T00:13:39.789Z,5.05
2022-10-20T00:16:07.809Z,6.72
2022-10-20T00:18:35.481Z,5.60
2022-10-20T00:21:16.174Z,6.40
2022-10-20T00:23:43.566Z,6.47
2022-10-20T00:26:16.556Z,5.90
2022-10-20T00:28:44.909Z,5.78
2022-10-20T00:31:12.736Z,5.32
2022-10-20T00:33:57.605Z,6.50
2022-10-20T00:36:25.204Z,5.63
2022-10-20T00:38:57.880Z,5.65
2022-10-20T00:41:25.326Z,6.18
2022-10-20T00:43:53.898Z,5.63
2022-10-20T00:46:43.561Z,5.72
2022-10-20T00:49:22.645Z,4.75
2022-10-20T00:51:52.681Z,5.88
2022-10-20T00:54:25.349Z,6.10
2022-10-20T00:56:55.520Z,4.60
2022-10-20T00:59:28.609Z,5.15
2022-10-20T01:01:57.023Z,5.60
2022-10-20T01:04:26.181Z,5.15
2022-10-20T01:06:53.696Z,4.90
2022-10-20T01:09:21.334Z,4.43
2022-10-20T01:12:26.668Z,4.90
2022-10-20T01:18:22.945Z,4.95
2022-10-20T01:21:11.576Z,4.88
2022-10-20T01:23:51.132Z,5.20
2022-10-20T01:26:42.879Z,5.40
2022-10-20T01:29:19.379Z,4.45
2022-10-20T01:32:15.849Z,4.35
2022-10-20T01:34:48.025Z,5.00
2022-10-20T01:37:50.926Z,4.72
2022-10-20T01:40:40.684Z,4.05
2022-10-20T01:43:12.286Z,3.85
2022-10-20T01:45:44.760Z,4.47
2022-10-20T01:48:14.295Z,5.35
2022-10-20T01:50:43.310Z,4.63
2022-10-20T01:53:10.627Z,4.15
2022-10-20T01:55:39.065Z,4.00
2022-10-20T01:58:15.042Z,5.25
2022-10-20T02:00:45.128Z,5.05
2022-10-20T02:03:34.673Z,5.85
2022-10-20T02:06:25.910Z,5.80
2022-10-20T02:08:59.905Z,4.38
2022-10-20T02:11:53.423Z,4.95
2022-10-20T02:14:22.809Z,5.20
2022-10-20T02:16:55.496Z,4.97
2022-10-20T02:19:25.782Z,5.05
2022-10-20T02:21:56.385Z,4.25
2022-10-20T02:24:29.529Z,4.80
2022-10-20T02:27:02.043Z,4.07
2022-10-20T02:29:34.894Z,5.60
2022-10-20T02:32:02.829Z,5.07
2022-10-20T02:34:30.169Z,5.32
2022-10-20T02:36:59.160Z,5.55
2022-10-20T02:39:27.138Z,5.82
2022-10-20T02:41:54.966Z,4.78
2022-10-20T02:44:22.992Z,5.65
2022-10-20T02:46:50.353Z,6.03
2022-10-20T02:49:17.942Z,7.40
2022-10-20T02:51:45.217Z,7.35
2022-10-20T02:54:12.558Z,8.32
2022-10-20T02:56:39.839Z,7.40
2022-10-20T02:59:07.126Z,7.25
2022-10-20T03:01:34.512Z,6.70
2022-10-20T03:04:01.845Z,5.82
2022-10-20T03:06:29.141Z,6.57
2022-10-20T03:08:56.595Z,7.35
2022-10-20T03:11:24.276Z,8.55
2022-10-20T03:13:51.513Z,7.80
2022-10-20T03:16:18.919Z,7.70
2022-10-20T03:18:46.164Z,7.95
2022-10-20T03:21:13.787Z,7.63
2022-10-20T03:23:41.081Z,6.57
2022-10-20T03:26:10.847Z,7.90
2022-10-20T03:28:39.020Z,6.90
2022-10-20T03:31:07.053Z,8.23
2022-10-20T03:33:34.675Z,6.88
2022-10-20T03:36:02.109Z,6.40
2022-10-20T03:38:29.437Z,6.30
2022-10-20T03:40:56.846Z,6.70
2022-10-20T03:43:24.185Z,5.45
2022-10-20T03:45:51.585Z,7.93
2022-10-20T03:48:18.894Z,8.65
2022-10-20T03:50:46.208Z,7.45
2022-10-20T03:53:14.191Z,6.60
2022-10-20T03:55:41.441Z,6.82
2022-10-20T03:58:08.777Z,7.28
2022-10-20T04:00:36.196Z,6.28
2022-10-20T04:03:03.705Z,7.68
2022-10-20T04:05:31.234Z,7.00
2022-10-20T04:07:58.591Z,7.68
2022-10-20T04:10:25.876Z,7.30
2022-10-20T04:12:53.165Z,6.78
2022-10-20T04:15:20.564Z,7.68
2022-10-20T04:17:47.877Z,6.38
2022-10-20T04:20:15.209Z,7.50
2022-10-20T04:22:42.573Z,8.32
2022-10-20T04:25:12.086Z,8.82
2022-10-20T04:27:40.258Z,8.82
2022-10-20T04:30:08.779Z,8.82
2022-10-20T04:32:36.248Z,8.75
2022-10-20T04:35:03.992Z,8.45
2022-10-20T04:37:31.484Z,9.10
2022-10-20T04:39:58.856Z,8.60
2022-10-20T04:42:26.194Z,8.70
2022-10-20T04:44:53.590Z,41.92
2022-10-20T04:47:21.689Z,17.58
2022-10-20T04:49:49.037Z,29.20
2022-10-20T04:52:17.343Z,11.40
2022-10-20T04:54:44.694Z,9.40
2022-10-20T04:57:12.037Z,10.48
2022-10-20T04:59:39.314Z,10.57
2022-10-20T05:02:06.670Z,8.73
2022-10-20T05:04:34.084Z,10.80
2022-10-20T05:07:01.391Z,9.30
2022-10-20T05:09:28.882Z,8.55
2022-10-20T05:11:56.271Z,7.68
2022-10-20T05:14:23.866Z,8.77
2022-10-20T05:16:51.592Z,10.18
2022-10-20T05:19:18.887Z,11.10
2022-10-20T05:21:46.172Z,10.32
2022-10-20T05:24:20.834Z,12.23
2022-10-20T05:26:49.533Z,9.75
2022-10-20T05:29:17.001Z,9.82
2022-10-20T05:31:44.693Z,10.55
2022-10-20T05:34:12.474Z,12.02
2022-10-20T05:36:39.944Z,10.85
2022-10-20T05:39:07.275Z,9.85
2022-10-20T05:41:38.029Z,10.50
2022-10-20T05:44:09.001Z,10.65
2022-10-20T05:46:41.255Z,10.32
2022-10-20T05:49:16.607Z,10.10
2022-10-20T05:51:45.642Z,10.30
2022-10-20T05:54:14.028Z,9.63
2022-10-20T05:56:41.695Z,9.27
2022-10-20T05:59:10.211Z,8.80
2022-10-20T06:01:50.469Z,10.38
2022-10-20T06:04:23.575Z,9.82
2022-10-20T06:06:52.538Z,8.77
2022-10-20T06:09:22.026Z,9.68
2022-10-20T06:11:49.527Z,9.55
2022-10-20T06:14:17.466Z,8.70
2022-10-20T06:16:44.928Z,8.27
2022-10-20T06:19:12.252Z,9.40
2022-10-20T06:21:39.793Z,8.50
2022-10-20T06:24:07.490Z,8.60
2022-10-20T06:26:38.920Z,9.50
2022-10-20T06:29:09.646Z,8.32
2022-10-20T06:31:42.055Z,9.15
2022-10-20T06:34:13.377Z,8.03
2022-10-20T06:36:42.167Z,8.63
2022-10-20T06:39:12.975Z,7.65
2022-10-20T06:41:40.985Z,9.10
2022-10-20T06:44:21.004Z,7.32
2022-10-20T06:46:49.040Z,7.00
2022-10-20T06:49:16.363Z,6.57
2022-10-20T06:51:43.670Z,7.88
2022-10-20T06:54:11.041Z,7.72
2022-10-20T06:56:39.576Z,10.27
2022-10-20T06:59:07.011Z,10.70
2022-10-20T07:01:36.195Z,9.45
2022-10-20T07:04:10.475Z,10.23
2022-10-20T07:06:40.360Z,9.77
2022-10-20T07:09:11.476Z,9.57
2022-10-20T07:11:39.008Z,10.43
2022-10-20T07:14:06.350Z,9.57
2022-10-20T07:16:35.026Z,11.38
2022-10-20T07:19:04.477Z,10.38
2022-10-20T07:21:36.527Z,10.15
2022-10-20T07:24:06.674Z,10.85
2022-10-20T07:26:36.452Z,9.27
2022-10-20T07:29:04.862Z,10.02
2022-10-20T07:31:35.913Z,10.30
2022-10-20T07:34:23.771Z,9.95
2022-10-20T07:36:52.404Z,8.80
2022-10-20T07:39:19.794Z,8.05
2022-10-20T07:41:48.158Z,8.80
2022-10-20T07:44:16.686Z,9.73
2022-10-20T07:46:44.737Z,8.45
2022-10-20T07:51:59.445Z,9.23
2022-10-20T07:54:26.880Z,6.75
2022-10-20T07:56:54.236Z,7.40
2022-10-20T07:59:21.608Z,7.90
2022-10-20T08:01:49.040Z,7.15
2022-10-20T08:04:16.419Z,7.75
2022-10-20T08:06:43.811Z,7.45
2022-10-20T08:09:11.168Z,8.15
2022-10-20T08:11:38.503Z,8.02
2022-10-20T08:14:05.777Z,7.78
2022-10-20T08:19:21.322Z,8.35
2022-10-20T08:21:48.730Z,7.10
2022-10-20T08:24:16.088Z,7.25
2022-10-20T08:26:43.443Z,11.90
2022-10-20T08:29:12.276Z,9.25
2022-10-20T08:31:40.251Z,7.18
2022-10-20T08:34:08.167Z,7.00
2022-10-20T08:36:37.202Z,7.22
2022-10-20T08:39:06.244Z,6.70
2022-10-20T08:42:02.664Z,6.80
2022-10-20T08:44:35.024Z,6.72
2022-10-20T08:47:05.141Z,6.30
2022-10-20T08:49:35.026Z,6.60
2022-10-20T08:52:02.596Z,7.00
2022-10-20T08:54:34.107Z,5.78
2022-10-20T08:57:01.479Z,5.47
2022-10-20T08:59:34.694Z,5.07
2022-10-20T09:02:03.823Z,6.68
2022-10-20T09:04:36.061Z,5.88
2022-10-20T09:07:10.164Z,6.50
2022-10-20T09:09:37.733Z,5.38
2022-10-20T09:12:07.707Z,5.60
2022-10-20T09:14:37.313Z,6.00
2022-10-20T09:17:09.125Z,6.93
2022-10-20T09:19:39.285Z,6.18
2022-10-20T09:22:07.453Z,6.30
2022-10-20T09:24:36.152Z,6.65
2022-10-20T09:27:33.421Z,6.47
2022-10-20T09:30:35.592Z,6.10
2022-10-20T09:33:31.529Z,7.15
2022-10-20T09:36:04.202Z,7.13
2022-10-20T09:38:35.181Z,7.25
2022-10-20T09:41:07.019Z,6.32
2022-10-20T09:43:34.461Z,6.38
2022-10-20T09:46:06.798Z,5.93
2022-10-20T09:48:41.909Z,6.57
2022-10-20T09:51:15.934Z,5.10
2022-10-20T09:54:06.168Z,4.68
2022-10-20T09:56:38.816Z,5.63
2022-10-20T09:59:29.301Z,5.63
2022-10-20T10:01:59.529Z,5.38
2022-10-20T10:04:36.216Z,5.20
2022-10-20T10:07:25.116Z,4.72
2022-10-20T10:10:05.432Z,6.20
2022-10-20T10:12:36.123Z,5.40
2022-10-20T10:15:28.934Z,6.30
2022-10-20T10:17:57.471Z,5.60
2022-10-20T10:20:27.860Z,4.97
2022-10-20T10:23:27.367Z,4.50
2022-10-20T10:25:59.156Z,5.43
2022-10-20T10:28:40.125Z,5.20
2022-10-20T10:31:21.467Z,4.28
2022-10-20T10:33:52.880Z,4.50
2022-10-20T10:36:35.848Z,4.65
2022-10-20T10:39:07.003Z,4.03
2022-10-20T10:41:42.821Z,4.18
2022-10-20T10:44:13.170Z,4.75
2022-10-20T10:46:47.603Z,3.47
2022-10-20T10:49:42.062Z,4.65
2022-10-20T10:52:28.652Z,3.65
2022-10-20T10:55:11.736Z,3.78
2022-10-20T10:57:47.634Z,3.88
2022-10-20T11:00:40.641Z,4.20
2022-10-20T11:03:16.993Z,4.35
2022-10-20T11:06:03.714Z,4.10
2022-10-20T11:09:00.028Z,3.60
2022-10-20T11:11:49.744Z,3.70
2022-10-20T11:14:28.986Z,4.03
2022-10-20T11:17:21.912Z,3.95
2022-10-20T11:20:14.422Z,4.55
2022-10-20T11:22:41.638Z,4.70
2022-10-20T11:25:29.837Z,3.83
2022-10-20T11:27:58.899Z,4.65
2022-10-20T11:30:27.514Z,3.90
2022-10-20T11:33:17.067Z,4.97
2022-10-20T11:36:03.295Z,3.97
2022-10-20T11:38:46.998Z,4.03
2022-10-20T11:41:35.333Z,3.55
2022-10-20T11:44:12.384Z,4.38
2022-10-20T11:46:52.897Z,4.10
2022-10-20T11:49:20.539Z,4.30
2022-10-20T11:52:14.205Z,4.82
2022-10-20T11:55:04.877Z,4.03
2022-10-20T11:57:43.877Z,3.80
2022-10-20T12:00:32.677Z,4.13
2022-10-20T12:03:02.779Z,3.72
2022-10-20T12:05:45.961Z,3.88
2022-10-20T12:08:54.014Z,3.70
2022-10-20T12:11:48.052Z,3.78
2022-10-20T12:14:15.496Z,3.83
2022-10-20T12:16:52.138Z,3.38
2022-10-20T12:19:25.229Z,3.90
2022-10-20T12:21:58.051Z,3.25
2022-10-20T12:24:35.314Z,4.03
2022-10-20T12:27:17.494Z,4.75
2022-10-20T12:29:44.807Z,3.33
2022-10-20T12:32:55.146Z,4.00
2022-10-20T12:35:22.377Z,3.22
2022-10-20T12:38:04.548Z,3.05
2022-10-20T12:40:41.067Z,2.90
2022-10-20T12:43:29.875Z,3.50
2022-10-20T12:46:03.320Z,3.45
2022-10-20T12:48:34.905Z,3.90
2022-10-20T12:51:06.392Z,3.25
2022-10-20T12:53:34.354Z,4.53
2022-10-20T12:56:07.782Z,4.22
2022-10-20T12:58:56.594Z,3.85
2022-10-20T13:01:24.015Z,3.63
2022-10-20T13:03:52.724Z,4.38
2022-10-20T13:06:40.853Z,4.03
2022-10-20T13:09:21.231Z,4.50
2022-10-20T13:12:00.176Z,3.83
2022-10-20T13:14:41.493Z,3.85
2022-10-20T13:17:35.262Z,4.03
2022-10-20T13:20:27.246Z,4.72
2022-10-20T13:22:55.794Z,4.07
2022-10-20T13:25:38.454Z,4.45
2022-10-20T13:28:24.843Z,3.60
2022-10-20T13:31:08.981Z,3.28
2022-10-20T13:34:03.198Z,3.60
2022-10-20T13:36:46.706Z,3.80
2022-10-20T13:39:38.985Z,3.58
2022-10-20T13:42:09.288Z,3.63
2022-10-20T13:45:13.920Z,4.32
2022-10-20T13:48:05.617Z,3.70
2022-10-20T13:50:39.761Z,3.85
2022-10-20T13:53:20.681Z,4.22
2022-10-20T13:56:08.424Z,4.70
2022-10-20T13:58:35.879Z,3.50
2022-10-20T14:01:06.206Z,4.47
2022-10-20T14:03:54.069Z,4.38
2022-10-20T14:06:27.236Z,4.20
2022-10-20T14:11:22.865Z,4.07
2022-10-20T14:13:50.690Z,4.32
2022-10-20T14:16:25.074Z,3.50
2022-10-20T14:19:05.770Z,3.47
2022-10-20T14:21:49.294Z,4.00
2022-10-20T14:24:40.330Z,3.95
2022-10-20T14:27:15.728Z,3.88
2022-10-20T14:29:44.038Z,3.75
2022-10-20T14:32:18.674Z,3.65
2022-10-20T14:35:10.631Z,3.45
2022-10-20T14:37:43.420Z,2.78
2022-10-20T14:40:30.968Z,3.58
2022-10-20T14:43:21.165Z,3.20
2022-10-20T14:45:57.785Z,2.90
2022-10-20T14:48:41.272Z,3.05
2022-10-20T14:54:15.053Z,3.83
2022-10-20T14:57:01.986Z,4.40
2022-10-20T14:59:32.176Z,3.33
2022-10-20T15:02:09.636Z,3.30
2022-10-20T15:04:39.213Z,3.30
2022-10-20T15:07:28.546Z,2.63
2022-10-20T15:10:09.368Z,3.17
2022-10-20T15:12:36.837Z,3.22
2022-10-20T15:15:08.013Z,3.40
2022-10-20T15:17:46.404Z,7.93
2022-10-20T15:20:33.385Z,3.67
2022-10-20T15:23:18.676Z,4.55
2022-10-20T15:25:45.931Z,4.00
2022-10-20T15:28:52.001Z,4.00
2022-10-20T15:31:29.079Z,2.95
2022-10-20T15:33:57.896Z,3.30
2022-10-20T15:36:29.752Z,3.88
2022-10-20T15:38:57.263Z,3.58
2022-10-20T15:41:30.093Z,3.90
2022-10-20T15:44:13.434Z,3.25
2022-10-20T15:46:42.205Z,3.40
2022-10-20T15:49:09.828Z,3.80
2022-10-20T15:51:40.130Z,4.07
2022-10-20T15:54:07.932Z,3.70
2022-10-20T15:56:35.492Z,3.83
2022-10-20T15:59:03.168Z,3.47
2022-10-20T16:01:30.670Z,3.97
2022-10-20T16:03:58.373Z,3.83
2022-10-20T16:06:25.719Z,3.83
2022-10-20T16:08:53.140Z,4.03
2022-10-20T16:11:21.365Z,4.20
2022-10-20T16:13:49.163Z,3.88
2022-10-20T16:16:19.431Z,3.45
2022-10-20T16:18:47.163Z,10.02
2022-10-20T16:21:14.553Z,5.47
2022-10-20T16:23:43.998Z,5.30
2022-10-20T16:26:14.352Z,4.10
2022-10-20T16:28:41.972Z,4.65
2022-10-20T16:31:11.511Z,4.22
2022-10-20T16:33:38.932Z,4.60
2022-10-20T16:36:08.967Z,4.53
2022-10-20T16:38:39.913Z,7.35
2022-10-20T16:41:10.338Z,4.60
2022-10-20T16:43:43.485Z,5.22
2022-10-20T16:46:12.265Z,6.53
2022-10-20T16:48:42.558Z,5.10
2022-10-20T16:51:12.243Z,4.70
2022-10-20T16:53:39.583Z,3.85
2022-10-20T16:56:07.650Z,4.40
2022-10-20T16:58:35.427Z,4.85
2022-10-20T17:01:09.693Z,4.68
2022-10-20T17:03:41.290Z,4.95
2022-10-20T17:06:09.746Z,4.40
2022-10-20T17:08:38.204Z,4.70
2022-10-20T17:11:09.199Z,4.20
2022-10-20T17:13:38.279Z,4.53
2022-10-20T17:16:14.128Z,4.00
2022-10-20T17:18:41.488Z,5.15
2022-10-20T17:21:09.537Z,4.53
2022-10-20T17:23:41.797Z,4.85
2022-10-20T17:28:42.174Z,6.28
2022-10-20T17:31:11.874Z,14.13
2022-10-20T17:33:39.627Z,6.60
2022-10-20T17:36:17.747Z,4.93
2022-10-20T17:38:55.913Z,5.53
2022-10-20T17:41:34.080Z,5.25
2022-10-20T17:44:10.387Z,6.35
2022-10-20T17:46:43.458Z,6.70
2022-10-20T17:49:15.548Z,6.20
2022-10-20T17:51:44.297Z,6.32
2022-10-20T17:54:11.662Z,6.85
2022-10-20T17:56:40.175Z,6.13
2022-10-20T17:59:08.837Z,6.15
2022-10-20T18:01:38.645Z,5.63
2022-10-20T18:04:12.152Z,5.38
2022-10-20T18:06:40.808Z,5.70
2022-10-20T18:09:11.248Z,5.78
2022-10-20T18:11:40.522Z,6.88
2022-10-20T18:14:07.896Z,6.60
2022-10-20T18:16:37.042Z,5.45
2022-10-20T18:19:05.726Z,5.45
2022-10-20T18:21:33.763Z,5.57
2022-10-20T18:24:03.950Z,5.88
2022-10-20T18:26:33.501Z,6.45
2022-10-20T18:29:02.237Z,5.93
2022-10-20T18:31:31.849Z,6.53
2022-10-20T18:34:05.746Z,6.72
2022-10-20T18:36:36.897Z,7.22
2022-10-20T18:39:07.390Z,7.68
2022-10-20T18:41:38.258Z,5.82
2022-10-20T18:44:09.984Z,6.80
2022-10-20T18:46:37.830Z,5.90
2022-10-20T18:49:09.525Z,6.22
2022-10-20T18:51:37.152Z,6.57
2022-10-20T18:54:06.336Z,8.15
2022-10-20T18:56:34.552Z,7.00
2022-10-20T18:59:04.352Z,6.25
2022-10-20T19:01:34.977Z,6.80
2022-10-20T19:04:03.784Z,6.88
2022-10-20T19:06:42.698Z,6.03
2022-10-20T19:09:14.561Z,11.68
2022-10-20T19:11:42.306Z,22.05
2022-10-20T19:14:11.412Z,17.23
2022-10-20T19:16:39.750Z,17.20
2022-10-20T19:19:08.600Z,10.98
2022-10-20T19:21:36.875Z,8.95
2022-10-20T19:24:11.634Z,8.45
2022-10-20T19:26:52.668Z,6.55
2022-10-20T19:29:30.595Z,7.18
2022-10-20T19:32:01.143Z,7.05
2022-10-20T19:34:39.638Z,34.13
2022-10-20T19:37:08.274Z,36.20
2022-10-20T19:39:40.373Z,15.25
2022-10-20T19:42:08.240Z,8.63
2022-10-20T19:44:36.723Z,8.30
2022-10-20T19:47:05.825Z,10.73
2022-10-20T19:49:34.234Z,8.25
2022-10-20T19:52:02.385Z,6.78
2022-10-20T19:54:30.344Z,6.68
2022-10-20T19:56:57.903Z,8.85
2022-10-20T19:59:26.658Z,8.30
2022-10-20T20:01:54.627Z,9.10
2022-10-20T20:04:22.530Z,8.05
2022-10-20T20:06:50.521Z,8.70
2022-10-20T20:09:18.462Z,8.68
2022-10-20T20:11:46.544Z,9.55
2022-10-20T20:14:18.439Z,8.77
2022-10-20T20:16:47.189Z,9.35
2022-10-20T20:19:16.683Z,8.15
2022-10-20T20:21:44.878Z,8.57
2022-10-20T20:24:13.564Z,7.60
2022-10-20T20:26:41.003Z,8.23
2022-10-20T20:29:08.322Z,8.85
2022-10-20T20:31:35.662Z,7.88
2022-10-20T20:34:03.123Z,8.15
2022-10-20T20:36:30.906Z,9.50
2022-10-20T20:38:59.567Z,7.95
2022-10-20T20:41:28.421Z,7.90
2022-10-20T20:43:55.963Z,8.55
2022-10-20T20:46:24.570Z,7.38
2022-10-20T20:48:51.871Z,8.10
2022-10-20T20:51:19.234Z,7.82
2022-10-20T20:53:46.978Z,8.15
2022-10-20T20:56:16.284Z,8.15
2022-10-20T20:58:49.030Z,7.10
2022-10-20T21:01:27.867Z,7.28
2022-10-20T21:03:57.411Z,7.43
2022-10-20T21:06:33.308Z,7.00
2022-10-20T21:09:08.746Z,7.47
2022-10-20T21:11:36.675Z,7.90
2022-10-20T21:14:04.549Z,8.13
2022-10-20T21:16:34.402Z,6.70
2022-10-20T21:19:05.685Z,6.90
2022-10-20T21:21:35.661Z,6.78
2022-10-20T21:24:04.504Z,7.65
2022-10-20T21:26:32.816Z,6.72
2022-10-20T21:29:00.242Z,6.43
2022-10-20T21:31:29.356Z,8.18
2022-10-20T21:33:59.158Z,6.97
2022-10-20T21:36:28.141Z,7.20
2022-10-20T21:38:55.920Z,7.65
2022-10-20T21:41:32.432Z,6.90
2022-10-20T21:44:01.814Z,7.65
2022-10-20T21:46:32.033Z,7.03
2022-10-20T21:49:01.761Z,7.50
2022-10-20T21:51:34.534Z,6.32
2022-10-20T21:54:07.396Z,7.15
2022-10-20T21:56:40.150Z,7.60
2022-10-20T21:59:26.608Z,8.23
2022-10-20T22:01:56.820Z,7.40
2022-10-20T22:04:26.499Z,7.45
2022-10-20T22:06:54.712Z,7.75
2022-10-20T22:09:22.697Z,9.38
2022-10-20T22:11:52.704Z,8.02
2022-10-20T22:14:20.079Z,7.28
2022-10-20T22:16:47.748Z,7.38
2022-10-20T22:19:18.379Z,6.53
2022-10-20T22:21:47.712Z,7.90
2022-10-20T22:24:16.466Z,8.18
2022-10-20T22:26:43.728Z,6.78
2022-10-20T22:29:11.620Z,7.25
2022-10-20T22:31:39.773Z,7.43
2022-10-20T22:34:08.079Z,7.40
2022-10-20T22:36:35.602Z,6.78
2022-10-20T22:39:03.303Z,7.45
2022-10-20T22:41:30.655Z,7.60
2022-10-20T22:43:58.582Z,7.07
2022-10-20T22:46:26.066Z,6.65
2022-10-20T22:48:53.709Z,7.35
2022-10-20T22:51:21.241Z,6.85
2022-10-20T22:53:48.720Z,7.32
2022-10-20T22:56:19.799Z,7.13
2022-10-20T22:58:48.185Z,8.02
2022-10-20T23:01:18.128Z,8.18
2022-10-20T23:03:46.621Z,6.63
2022-10-20T23:06:20.500Z,7.05
2022-10-20T23:08:51.746Z,6.78
2022-10-20T23:11:19.697Z,6.30
2022-10-20T23:13:47.700Z,7.50
2022-10-20T23:16:15.566Z,7.28
2022-10-20T23:18:43.058Z,7.55
2022-10-20T23:21:11.910Z,6.57
2022-10-20T23:23:39.248Z,7.25
2022-10-20T23:26:07.918Z,7.22
2022-10-20T23:28:36.586Z,7.07
2022-10-20T23:31:09.570Z,6.85
2022-10-20T23:33:38.025Z,7.88
2022-10-20T23:36:05.811Z,7.20
2022-10-20T23:38:33.347Z,7.15
2022-10-20T23:41:00.694Z,6.65
2022-10-20T23:43:28.335Z,6.47
2022-10-20T23:45:55.637Z,7.15
2022-10-20T23:48:22.995Z,6.85
2022-10-20T23:50:50.524Z,6.18
2022-10-20T23:53:18.088Z,6.65
2022-10-20T23:55:45.560Z,6.97
2022-10-20T23:58:13.091Z,7.07
